createdAt,value
2019-05-12T00:02:14.792Z,102975.22
2019-05-12T00:07:18.021Z,102972.63
2019-05-12T00:12:20.158Z,102979.74
2019-05-12T00:17:24.655Z,102978.08
2019-05-12T00:22:31.034Z,102982.41
2019-05-12T00:27:33.792Z,102979.29
2019-05-12T00:32:35.650Z,102986.79
2019-05-12T00:37:38.329Z,102994.00
2019-05-12T00:42:41.974Z,102997.79
2019-05-12T00:47:43.697Z,103000.35
2019-05-12T00:52:45.729Z,102996.72
2019-05-12T00:57:48.497Z,103009.42
2019-05-12T01:02:53.162Z,103009.42
2019-05-12T01:07:58.363Z,103017.12
2019-05-12T01:13:00.976Z,103017.19
2019-05-12T01:18:09.463Z,103017.19
2019-05-12T01:23:23.051Z,103018.64
2019-05-12T01:28:25.165Z,103029.45
2019-05-12T01:33:27.731Z,103044.20
2019-05-12T01:38:29.812Z,103040.92
2019-05-12T01:43:32.173Z,103053.13
2019-05-12T01:48:37.768Z,103053.13
2019-05-12T01:53:40.354Z,103058.16
2019-05-12T01:58:42.310Z,103060.77
2019-05-12T02:03:44.227Z,103071.80
2019-05-12T02:08:51.318Z,103082.22
2019-05-12T02:13:53.915Z,103086.96
2019-05-12T02:18:58.176Z,103107.98
2019-05-12T02:23:59.831Z,103107.98
2019-05-12T02:29:01.745Z,103105.73
2019-05-12T02:34:05.906Z,103114.70
2019-05-12T02:39:08.083Z,103122.24
2019-05-12T02:44:10.202Z,103124.78
2019-05-12T02:49:14.636Z,103138.95
2019-05-12T02:54:16.623Z,103142.52
2019-05-12T02:59:21.278Z,103148.48
2019-05-12T03:04:28.842Z,103148.48
2019-05-12T03:09:30.936Z,103165.80
2019-05-12T03:14:39.353Z,103173.21
2019-05-12T03:19:36.631Z,103183.89
2019-05-12T03:24:38.776Z,103182.22
2019-05-12T03:29:40.562Z,103189.22
2019-05-12T03:34:47.418Z,103199.55
2019-05-12T03:39:48.542Z,103203.95
2019-05-12T03:44:54.750Z,103212.02
2019-05-12T03:49:56.507Z,103222.50
2019-05-12T03:54:58.587Z,103228.07
2019-05-12T04:00:00.412Z,103237.88
2019-05-12T04:05:05.194Z,103240.16
2019-05-12T04:10:07.177Z,103261.26
2019-05-12T04:15:16.382Z,103268.02
2019-05-12T04:20:20.899Z,103272.43
2019-05-12T04:25:25.597Z,103282.41
2019-05-12T04:30:27.525Z,103281.43
2019-05-12T04:35:29.911Z,103287.30
2019-05-12T04:40:36.833Z,103297.23
2019-05-12T04:45:38.797Z,103298.78
2019-05-12T04:50:40.625Z,103296.12
2019-05-12T04:55:44.480Z,103293.83
2019-05-12T05:00:46.612Z,103299.62
2019-05-12T05:05:48.719Z,103298.61
2019-05-12T05:10:50.649Z,103302.67
2019-05-12T05:15:55.123Z,103319.03
2019-05-12T05:20:56.916Z,103325.84
2019-05-12T05:26:03.155Z,103339.98
2019-05-12T05:31:04.739Z,103343.02
2019-05-12T05:36:15.083Z,103351.47
2019-05-12T05:41:17.258Z,103364.27
2019-05-12T05:46:19.295Z,103365.98
2019-05-12T05:51:21.252Z,103383.48
2019-05-12T05:56:38.417Z,103376.95
2019-05-12T06:01:27.785Z,103388.41
2019-05-12T06:06:29.932Z,103398.88
2019-05-12T06:11:34.505Z,103401.86
2019-05-12T06:16:36.969Z,103400.61
2019-05-12T06:21:45.810Z,103398.44
2019-05-12T06:26:59.967Z,103412.69
2019-05-12T06:31:54.149Z,103419.27
2019-05-12T06:37:02.395Z,103423.18
2019-05-12T06:42:11.607Z,103427.26
2019-05-12T06:47:08.114Z,103430.61
2019-05-12T06:52:08.527Z,103441.23
2019-05-12T06:57:22.092Z,103440.09
2019-05-12T07:02:16.293Z,103454.94
2019-05-12T07:07:18.297Z,103461.13
2019-05-12T07:12:24.873Z,103472.61
2019-05-12T07:17:43.599Z,103462.81
2019-05-12T07:22:44.439Z,103468.78
2019-05-12T07:27:53.650Z,103476.00
2019-05-12T07:32:51.121Z,103475.77
2019-05-12T07:37:56.066Z,103490.27
2019-05-12T07:43:09.848Z,103496.52
2019-05-12T07:48:11.344Z,103503.94
2019-05-12T07:53:14.491Z,103490.76
2019-05-12T07:58:19.018Z,103489.41
2019-05-12T08:03:21.381Z,103484.70
2019-05-12T08:08:23.821Z,103492.20
2019-05-12T08:13:25.725Z,103500.07
2019-05-12T08:18:30.759Z,103501.48
2019-05-12T08:23:33.729Z,103492.92
2019-05-12T08:28:40.386Z,103500.30
2019-05-12T08:33:43.472Z,103504.13
2019-05-12T08:38:45.198Z,103505.91
2019-05-12T08:43:54.523Z,103516.06
2019-05-12T08:48:56.630Z,103511.18
2019-05-12T08:54:02.351Z,103529.74
2019-05-12T08:59:04.443Z,103535.33
2019-05-12T09:04:11.136Z,103527.84
2019-05-12T09:09:13.949Z,103537.92
2019-05-12T09:14:18.648Z,103546.46
2019-05-12T09:19:26.679Z,103538.55
2019-05-12T09:24:27.819Z,103550.05
2019-05-12T09:29:35.119Z,103556.44
2019-05-12T09:34:37.256Z,103566.63
2019-05-12T09:39:42.810Z,103580.00
2019-05-12T09:44:43.899Z,103579.34
2019-05-12T09:49:45.885Z,103592.02
2019-05-12T09:54:48.975Z,103590.26
2019-05-12T09:59:57.252Z,103591.42
2019-05-12T10:04:56.433Z,103588.12
2019-05-12T10:09:59.184Z,103586.22
2019-05-12T10:15:04.243Z,103585.16
2019-05-12T10:20:06.930Z,103575.23
2019-05-12T10:25:14.460Z,103588.38
2019-05-12T10:30:17.246Z,103595.09
2019-05-12T10:35:21.414Z,103602.95
2019-05-12T10:40:24.810Z,103600.94
2019-05-12T10:45:28.947Z,103616.26
2019-05-12T10:50:31.115Z,103610.77
2019-05-12T10:55:34.933Z,103614.13
2019-05-12T11:00:36.965Z,103609.80
2019-05-12T11:05:38.915Z,103621.27
2019-05-12T11:10:40.896Z,103619.70
2019-05-12T11:15:47.780Z,103627.80
2019-05-12T11:20:46.653Z,103615.57
2019-05-12T11:25:50.466Z,103613.72
2019-05-12T11:30:52.407Z,103623.92
2019-05-12T11:35:54.495Z,103616.89
2019-05-12T11:40:56.459Z,103624.05
2019-05-12T11:45:58.336Z,103627.88
2019-05-12T11:51:03.895Z,103631.63
2019-05-12T11:56:07.785Z,103623.08
2019-05-12T12:01:13.487Z,103622.79
2019-05-12T12:06:18.816Z,103626.44
2019-05-12T12:11:25.572Z,103636.50
2019-05-12T12:16:26.010Z,103638.53
2019-05-12T12:21:31.804Z,103642.12
2019-05-12T12:26:38.781Z,103637.48
2019-05-12T12:31:48.172Z,103640.16
2019-05-12T12:36:50.095Z,103644.94
2019-05-12T12:42:00.064Z,103645.31
2019-05-12T12:47:00.131Z,103646.69
2019-05-12T12:52:03.283Z,103658.77
2019-05-12T12:57:09.786Z,103662.80
2019-05-12T13:02:11.574Z,103672.38
2019-05-12T13:07:19.763Z,103669.37
2019-05-12T13:12:21.687Z,103672.35
2019-05-12T13:17:29.047Z,103669.73
2019-05-12T13:22:29.576Z,103679.80
2019-05-12T13:27:36.811Z,103681.94
2019-05-12T13:32:39.193Z,103678.33
2019-05-12T13:37:43.270Z,103688.63
2019-05-12T13:42:46.427Z,103694.67
2019-05-12T13:47:53.054Z,103706.83
2019-05-12T13:52:54.627Z,103691.94
2019-05-12T13:57:57.882Z,103720.98
2019-05-12T14:03:04.773Z,103708.53
2019-05-12T14:08:05.771Z,103709.47
2019-05-12T14:13:07.973Z,103718.42
2019-05-12T14:18:16.463Z,103728.30
2019-05-12T14:23:16.050Z,103724.16
2019-05-12T14:28:18.009Z,103737.71
2019-05-12T14:33:19.868Z,103729.61
2019-05-12T14:38:27.487Z,103721.47
2019-05-12T14:43:29.031Z,103727.74
2019-05-12T14:48:30.949Z,103724.22
2019-05-12T14:53:38.339Z,103736.62
2019-05-12T14:58:40.376Z,103737.86
2019-05-12T15:03:47.532Z,103748.03
2019-05-12T15:08:46.039Z,103743.91
2019-05-12T15:13:47.951Z,103745.63
2019-05-12T15:18:50.278Z,103751.50
2019-05-12T15:23:53.313Z,103753.76
2019-05-12T15:28:57.283Z,103757.13
2019-05-12T15:33:58.971Z,103757.33
2019-05-12T15:39:00.890Z,103768.66
2019-05-12T15:44:06.501Z,103761.00
2019-05-12T15:49:08.852Z,103769.00
2019-05-12T15:54:14.806Z,103772.69
2019-05-12T15:59:17.365Z,103781.34
2019-05-12T16:04:19.414Z,103781.28
2019-05-12T16:09:23.670Z,103779.02
2019-05-12T16:14:25.157Z,103781.95
2019-05-12T16:19:27.044Z,103793.27
2019-05-12T16:24:29.013Z,103785.78
2019-05-12T16:29:30.947Z,103795.20
2019-05-12T16:34:36.143Z,103796.67
2019-05-12T16:39:44.315Z,103808.48
2019-05-12T16:44:43.927Z,103819.13
2019-05-12T16:49:45.600Z,103813.80
2019-05-12T16:54:47.534Z,103818.30
2019-05-12T16:59:55.998Z,103827.81
2019-05-12T17:04:54.455Z,103830.59
2019-05-12T17:10:03.098Z,103834.48
2019-05-12T17:15:04.656Z,103844.73
2019-05-12T17:20:09.925Z,103843.39
2019-05-12T17:25:16.985Z,103845.05
2019-05-12T17:30:19.718Z,103851.13
2019-05-12T17:35:29.372Z,103847.81
2019-05-12T17:40:25.461Z,103864.66
2019-05-12T17:45:27.533Z,103857.64
2019-05-12T17:50:29.433Z,103857.94
2019-05-12T17:55:31.352Z,103871.46
2019-05-12T18:00:33.686Z,103876.84
2019-05-12T18:05:37.146Z,103884.30
2019-05-12T18:10:39.600Z,103890.59
2019-05-12T18:15:41.582Z,103885.03
2019-05-12T18:20:44.491Z,103892.75
2019-05-12T18:25:46.795Z,103901.04
2019-05-12T18:30:50.949Z,103901.55
2019-05-12T18:35:54.477Z,103904.23
2019-05-12T18:40:56.907Z,103912.19
2019-05-12T18:46:05.454Z,103914.55
2019-05-12T18:51:11.870Z,103915.69
2019-05-12T18:56:10.423Z,103914.65
2019-05-12T19:01:13.915Z,103923.24
2019-05-12T19:06:16.360Z,103925.23
2019-05-12T19:11:31.851Z,103929.80
2019-05-12T19:16:27.858Z,103935.92
2019-05-12T19:21:30.863Z,103946.13
2019-05-12T19:26:38.308Z,103951.19
2019-05-12T19:31:43.571Z,103952.84
2019-05-12T19:36:45.063Z,103957.55
2019-05-12T19:41:45.161Z,103962.58
2019-05-12T19:46:49.532Z,103960.72
2019-05-12T19:51:54.280Z,103974.08
2019-05-12T19:56:55.649Z,103973.98
2019-05-12T20:02:00.475Z,103968.56
2019-05-12T20:07:03.686Z,103974.70
2019-05-12T20:12:19.229Z,103982.70
2019-05-12T20:17:21.377Z,103986.41
2019-05-12T20:22:25.212Z,103992.28
2019-05-12T20:27:27.382Z,103987.33
2019-05-12T20:32:31.042Z,103979.84
2019-05-12T20:37:33.656Z,103989.41
2019-05-12T20:42:48.266Z,103990.27
2019-05-12T20:47:45.510Z,103995.31
2019-05-12T20:52:52.231Z,103995.31
2019-05-12T20:57:54.386Z,103999.67
2019-05-12T21:02:56.025Z,104006.17
2019-05-12T21:08:03.304Z,104002.78
2019-05-12T21:13:03.813Z,103996.30
2019-05-12T21:18:07.504Z,104010.06
2019-05-12T21:23:09.586Z,104008.81
2019-05-12T21:28:11.541Z,104018.41
2019-05-12T21:33:14.778Z,104018.92
2019-05-12T21:38:24.398Z,104025.30
2019-05-12T21:43:22.766Z,104025.60
2019-05-12T21:48:29.200Z,104018.38
2019-05-12T21:53:30.091Z,104019.32
2019-05-12T21:58:32.013Z,104019.00
2019-05-12T22:03:33.924Z,104019.00
2019-05-12T22:08:35.880Z,104021.66
2019-05-12T22:13:47.303Z,104031.00
2019-05-12T22:18:43.834Z,104036.59
2019-05-12T22:23:51.424Z,104030.91
2019-05-12T22:28:50.952Z,104030.91
2019-05-12T22:33:56.257Z,104047.72
2019-05-12T22:39:00.995Z,104049.20
2019-05-12T22:44:01.122Z,104053.03
2019-05-12T22:49:04.188Z,104051.45
2019-05-12T22:54:10.416Z,104046.85
2019-05-12T22:59:10.178Z,104056.58
2019-05-12T23:04:14.093Z,104051.24
2019-05-12T23:09:19.367Z,104063.92
2019-05-12T23:14:25.119Z,104074.65
2019-05-12T23:19:28.169Z,104077.78
2019-05-12T23:24:35.386Z,104084.38
2019-05-12T23:29:34.016Z,104082.67
2019-05-12T23:34:35.764Z,104085.75
2019-05-12T23:39:39.909Z,104086.05
2019-05-12T23:44:44.142Z,104081.31
2019-05-12T23:49:45.996Z,104084.31
2019-05-12T23:54:48.189Z,104084.88
2019-05-12T23:59:50.000Z,104097.72
